createdAt,value
2023-05-21T00:00:01.232Z,0
2023-05-21T00:05:01.193Z,0
2023-05-21T00:10:14.579Z,0
2023-05-21T00:15:01.228Z,0
2023-05-21T00:20:01.249Z,0
2023-05-21T00:25:01.217Z,0
2023-05-21T00:30:01.277Z,0
2023-05-21T00:35:01.325Z,0
2023-05-21T00:40:09.227Z,0
2023-05-21T00:45:01.364Z,0
2023-05-21T00:50:01.429Z,0
2023-05-21T00:55:01.363Z,0
2023-05-21T01:00:01.391Z,0
2023-05-21T01:05:01.430Z,0
2023-05-21T01:10:13.586Z,0
2023-05-21T01:15:01.279Z,0
2023-05-21T01:20:01.310Z,0
2023-05-21T01:25:01.266Z,0
2023-05-21T01:30:01.502Z,0
2023-05-21T01:35:01.475Z,0
2023-05-21T01:40:09.867Z,0
2023-05-21T01:45:01.299Z,0
2023-05-21T01:50:01.309Z,0
2023-05-21T01:55:01.300Z,0
2023-05-21T02:00:01.327Z,0
2023-05-21T02:05:01.340Z,0
2023-05-21T02:10:12.512Z,0
2023-05-21T02:15:01.367Z,0
2023-05-21T02:20:01.345Z,0
2023-05-21T02:25:01.379Z,0
2023-05-21T02:30:01.370Z,0
2023-05-21T02:35:01.360Z,0
2023-05-21T02:40:09.965Z,0
2023-05-21T02:45:01.450Z,0
2023-05-21T02:50:01.362Z,0
2023-05-21T02:55:01.297Z,0
2023-05-21T03:00:01.350Z,0
2023-05-21T03:05:01.431Z,0
2023-05-21T03:10:08.900Z,0
2023-05-21T03:15:01.480Z,0.22186243386243387
2023-05-21T03:20:01.394Z,0.39281481481481484
2023-05-21T03:25:01.372Z,0.45021164021164023
2023-05-21T03:30:01.378Z,0.8162539682539682
2023-05-21T03:35:01.418Z,1.1397248677248677
2023-05-21T03:40:09.472Z,1.5275238095238095
2023-05-21T03:45:01.443Z,1.8682645502645503
2023-05-21T03:50:01.465Z,2.5582539682539682
2023-05-21T03:55:01.478Z,3.301386243386243
2023-05-21T04:00:01.455Z,3.707873015873016
2023-05-21T04:05:01.637Z,3.903079365079365
2023-05-21T04:10:08.641Z,4.37778835978836
2023-05-21T04:15:01.643Z,4.565767195767196
2023-05-21T04:20:01.556Z,4.7116296296296305
2023-05-21T04:25:01.533Z,5.057047619047619
2023-05-21T04:30:01.572Z,5.566603174603174
2023-05-21T04:35:01.696Z,6.077089947089947
2023-05-21T04:40:13.857Z,6.6665291005291
2023-05-21T04:45:01.652Z,7.396603174603175
2023-05-21T04:50:01.701Z,8.000920634920634
2023-05-21T04:55:01.408Z,8.63862433862434
2023-05-21T05:00:01.552Z,9.576730158730157
2023-05-21T05:05:01.655Z,10.43357671957672
2023-05-21T05:10:09.267Z,10.731407407407408
2023-05-21T05:15:01.495Z,11.147767195767196
2023-05-21T05:20:01.523Z,11.692264550264552
2023-05-21T05:25:01.509Z,11.587513227513227
2023-05-21T05:30:01.557Z,11.312645502645504
2023-05-21T05:35:02.469Z,11.652042328042327
2023-05-21T05:40:13.444Z,12.143640211640212
2023-05-21T05:45:01.507Z,11.260772486772487
2023-05-21T05:50:01.520Z,11.043449735449736
2023-05-21T05:55:01.534Z,11.893862433862434
2023-05-21T06:00:01.588Z,13.389343915343915
2023-05-21T06:05:01.548Z,15.31184126984127
2023-05-21T06:10:08.931Z,17.321756613756616
2023-05-21T06:15:01.894Z,19.402835978835977
2023-05-21T06:20:01.561Z,21.735513227513227
2023-05-21T06:25:01.579Z,23.36324867724868
2023-05-21T06:30:01.587Z,28.76500529100529
2023-05-21T06:35:01.570Z,26.18658201058201
2023-05-21T06:40:07.555Z,24.591079365079366
2023-05-21T06:45:01.689Z,32.728264550264555
2023-05-21T06:50:01.552Z,40.32104761904762
2023-05-21T06:55:01.537Z,38.52923809523809
2023-05-21T07:00:01.545Z,41.261047619047616
2023-05-21T07:05:01.580Z,29.415185185185187
2023-05-21T07:10:08.904Z,25.61605291005291
2023-05-21T07:15:01.599Z,46.302645502645504
2023-05-21T07:20:01.679Z,40.24080423280424
2023-05-21T07:25:01.648Z,38.522433862433864
2023-05-21T07:30:01.650Z,35.08183068783069
2023-05-21T07:35:01.728Z,38.796
2023-05-21T07:40:14.478Z,46.77012698412699
2023-05-21T07:45:01.772Z,50.93093121693122
2023-05-21T07:50:01.807Z,48.996042328042336
2023-05-21T07:55:01.752Z,43.11738624338625
2023-05-21T08:00:01.916Z,48.07221164021165
2023-05-21T08:05:01.892Z,44.45569312169312
2023-05-21T08:10:09.418Z,34.87032804232804
2023-05-21T08:15:01.591Z,29.08768253968254
2023-05-21T08:20:01.602Z,31.535248677248678
2023-05-21T08:25:01.621Z,34.052656084656086
2023-05-21T08:30:01.634Z,38.37861375661375
2023-05-21T08:35:01.653Z,46.00396825396825
2023-05-21T08:40:08.447Z,54.7283492063492
2023-05-21T08:45:01.689Z,47.59835978835979
2023-05-21T08:50:01.661Z,44.58420105820106
2023-05-21T08:55:01.750Z,43.10285714285715
2023-05-21T09:00:01.793Z,39.66566137566138
2023-05-21T09:05:01.713Z,32.8638201058201
2023-05-21T09:10:09.802Z,25.568455026455027
2023-05-21T09:15:01.774Z,24.49804232804233
2023-05-21T09:20:01.723Z,23.813873015873018
2023-05-21T09:25:01.688Z,22.332084656084657
2023-05-21T09:30:01.666Z,23.641312169312172
2023-05-21T09:35:01.784Z,27.431925925925928
2023-05-21T09:40:10.852Z,64.3217037037037
2023-05-21T09:45:01.909Z,84.41157671957671
2023-05-21T09:50:01.949Z,84.07692063492064
2023-05-21T09:55:01.916Z,81.99114285714286
2023-05-21T10:00:01.955Z,80.59004232804233
2023-05-21T10:05:01.718Z,81.1228888888889
2023-05-21T10:10:09.780Z,81.80577777777778
2023-05-21T10:15:01.756Z,83.96044444444443
2023-05-21T10:20:01.816Z,50.12693121693121
2023-05-21T10:25:01.707Z,46.41019047619048
2023-05-21T10:30:01.768Z,43.1678835978836
2023-05-21T10:35:01.986Z,54.321481481481484
2023-05-21T10:40:08.434Z,58.67809523809524
2023-05-21T10:45:01.822Z,79.38965079365079
2023-05-21T10:50:01.811Z,81.08849735449736
2023-05-21T10:55:01.890Z,41.18016931216932
2023-05-21T11:00:01.939Z,40.44962962962963
2023-05-21T11:05:01.919Z,40.701756613756615
2023-05-21T11:10:08.750Z,38.176783068783074
2023-05-21T11:15:01.778Z,44.50216931216931
2023-05-21T11:20:01.787Z,47.144507936507935
2023-05-21T11:25:01.884Z,37.9667619047619
2023-05-21T11:30:01.813Z,38.459047619047624
2023-05-21T11:35:01.825Z,41.10842328042328
2023-05-21T11:40:11.514Z,79.89674074074074
2023-05-21T11:45:01.825Z,48.74934391534392
2023-05-21T11:50:01.872Z,43.67566137566138
2023-05-21T11:55:01.834Z,54.15684656084656
2023-05-21T12:00:01.969Z,54.7500634920635
2023-05-21T12:05:01.932Z,65.8779470899471
2023-05-21T12:10:09.109Z,54.78155555555555
2023-05-21T12:15:01.804Z,70.56880423280424
2023-05-21T12:20:01.851Z,73.21990476190476
2023-05-21T12:25:01.931Z,61.826359788359795
2023-05-21T12:30:01.837Z,67.8841164021164
2023-05-21T12:35:01.924Z,63.314804232804235
2023-05-21T12:40:14.071Z,53.9093544973545
2023-05-21T12:45:02.003Z,42.49622222222222
2023-05-21T12:50:01.905Z,35.76178835978836
2023-05-21T12:55:01.895Z,36.32866666666667
2023-05-21T13:00:02.029Z,41.52683597883598
2023-05-21T13:05:02.061Z,58.950380952380954
2023-05-21T13:10:10.151Z,46.62719576719577
2023-05-21T13:15:01.943Z,45.20261375661376
2023-05-21T13:20:01.976Z,49.06688888888889
2023-05-21T13:25:02.017Z,53.78069841269841
2023-05-21T13:30:01.885Z,53.41341798941799
2023-05-21T13:35:01.904Z,43.14393650793651
2023-05-21T13:40:08.234Z,47.58944973544974
2023-05-21T13:45:01.944Z,62.194243386243386
2023-05-21T13:50:01.984Z,64.52251851851851
2023-05-21T13:55:01.960Z,51.72062433862435
2023-05-21T14:00:02.107Z,48.83884656084656
2023-05-21T14:05:02.146Z,48.795746031746035
2023-05-21T14:10:10.501Z,44.47850793650794
2023-05-21T14:15:01.913Z,47.09565079365079
2023-05-21T14:20:01.989Z,36.06134391534391
2023-05-21T14:25:01.964Z,33.01529100529101
2023-05-21T14:30:01.985Z,32.6105291005291
2023-05-21T14:35:01.936Z,33.051280423280424
2023-05-21T14:40:09.785Z,26.20744973544974
2023-05-21T14:45:17.309Z,22.660179894179898
2023-05-21T14:50:02.006Z,21.471619047619047
2023-05-21T14:55:02.229Z,20.909544973544975
2023-05-21T15:00:02.103Z,20.574338624338626
2023-05-21T15:05:02.143Z,20.53463492063492
2023-05-21T15:10:10.347Z,20.998232804232806
2023-05-21T15:15:01.969Z,22.429291005291006
2023-05-21T15:20:02.021Z,21.35119576719577
2023-05-21T15:25:01.990Z,19.625291005291007
2023-05-21T15:30:02.246Z,19.57598941798942
2023-05-21T15:35:02.051Z,19.131650793650795
2023-05-21T15:40:11.486Z,17.93471957671958
2023-05-21T15:45:02.027Z,17.240719576719577
2023-05-21T15:50:02.211Z,16.667735449735453
2023-05-21T15:55:02.196Z,16.463333333333335
2023-05-21T16:00:02.074Z,16.222074074074076
2023-05-21T16:05:02.021Z,16.43074074074074
2023-05-21T16:10:11.020Z,19.141174603174605
2023-05-21T16:15:02.000Z,17.460920634920633
2023-05-21T16:20:02.080Z,14.269227513227515
2023-05-21T16:25:02.066Z,13.274592592592594
2023-05-21T16:30:02.098Z,12.789608465608465
2023-05-21T16:35:02.106Z,14.54067724867725
2023-05-21T16:40:08.261Z,18.856084656084658
2023-05-21T16:45:02.304Z,16.92631746031746
2023-05-21T16:50:02.287Z,11.210486772486773
2023-05-21T16:55:02.212Z,9.872010582010581
2023-05-21T17:00:02.065Z,8.93142857142857
2023-05-21T17:05:02.148Z,7.586222222222222
2023-05-21T17:10:10.709Z,7.061534391534392
2023-05-21T17:15:02.103Z,6.908317460317461
2023-05-21T17:20:02.074Z,6.715439153439154
2023-05-21T17:25:02.174Z,6.062962962962963
2023-05-21T17:30:02.312Z,6.1165079365079364
2023-05-21T17:35:02.087Z,6.129280423280424
2023-05-21T17:40:09.173Z,5.739788359788359
2023-05-21T17:45:02.156Z,4.5777566137566135
2023-05-21T17:50:02.164Z,4.346222222222222
2023-05-21T17:55:02.161Z,4.050222222222222
2023-05-21T18:00:02.140Z,3.6978941798941802
2023-05-21T18:05:02.165Z,3.2542116402116408
2023-05-21T18:10:09.454Z,2.8515555555555556
2023-05-21T18:15:02.191Z,2.5914814814814817
2023-05-21T18:20:02.227Z,2.334857142857143
2023-05-21T18:25:02.385Z,2.0317460317460316
2023-05-21T18:30:02.299Z,1.6122116402116404
2023-05-21T18:35:02.183Z,1.2067301587301587
2023-05-21T18:40:10.148Z,0.8874920634920634
2023-05-21T18:45:02.227Z,0.6226560846560847
2023-05-21T18:50:02.216Z,0.35733333333333334
2023-05-21T18:55:02.171Z,0.4
2023-05-21T19:00:02.189Z,0.3071534391534392
2023-05-21T19:05:02.241Z,0.18635978835978836
2023-05-21T19:10:09.070Z,0.16634920634920636
2023-05-21T19:15:02.282Z,0
2023-05-21T19:20:02.453Z,0
2023-05-21T19:25:02.252Z,0
2023-05-21T19:30:02.215Z,0
2023-05-21T19:35:02.208Z,0
2023-05-21T19:40:12.998Z,0
2023-05-21T19:45:02.313Z,0
2023-05-21T19:50:02.258Z,0
2023-05-21T19:55:02.324Z,0
2023-05-21T20:00:02.264Z,0
2023-05-21T20:05:02.250Z,0
2023-05-21T20:10:09.394Z,0
2023-05-21T20:15:02.431Z,0
2023-05-21T20:20:02.361Z,0
2023-05-21T20:25:02.403Z,0
2023-05-21T20:30:02.322Z,0
2023-05-21T20:35:03.919Z,0
2023-05-21T20:40:15.097Z,0
2023-05-21T20:45:02.323Z,0
2023-05-21T20:50:02.267Z,0
2023-05-21T20:55:02.305Z,0
2023-05-21T21:00:02.258Z,0
2023-05-21T21:05:02.249Z,0
2023-05-21T21:10:08.782Z,0
2023-05-21T21:15:02.304Z,0
2023-05-21T21:20:02.406Z,0
2023-05-21T21:25:02.501Z,0
2023-05-21T21:30:02.489Z,0
2023-05-21T21:35:02.304Z,0
2023-05-21T21:40:11.095Z,0
2023-05-21T21:45:02.400Z,0
2023-05-21T21:50:02.351Z,0
2023-05-21T21:55:02.307Z,0
2023-05-21T22:00:02.640Z,0
2023-05-21T22:05:02.505Z,0
2023-05-21T22:10:09.399Z,0
2023-05-21T22:15:02.314Z,0
2023-05-21T22:20:02.378Z,0
2023-05-21T22:25:02.432Z,0
2023-05-21T22:30:02.450Z,0
2023-05-21T22:35:02.539Z,0
2023-05-21T22:40:10.567Z,0
2023-05-21T22:45:02.596Z,0
2023-05-21T22:50:02.376Z,0
2023-05-21T22:55:02.390Z,0
2023-05-21T23:00:02.362Z,0
2023-05-21T23:05:02.377Z,0
2023-05-21T23:10:09.825Z,0
2023-05-21T23:15:02.401Z,0
2023-05-21T23:20:02.390Z,0
2023-05-21T23:25:02.480Z,0
2023-05-21T23:30:02.533Z,0
2023-05-21T23:35:02.395Z,0
2023-05-21T23:40:14.717Z,0
2023-05-21T23:45:02.552Z,0
2023-05-21T23:50:02.560Z,0
2023-05-21T23:55:02.543Z,0
